Current Weather

Randolph Afb

Universal City, Texas (KRND)

Report from: Friday, February 3, 2023 10:55 PM CST
Current time: Friday, February 3, 2023 11:50 PM CST

Nearby weather
Weather history
Weather forecast

Temperature4.4°C (39.9°F)
Dew point4.3°C (39.7°F)
Winds Calm
Visibility10 mi. (16.1 km)
Clouds Ceiling: Broken clouds 1,200 ft. (366 m)
Altimeter30.47 in.Hg (1032 mB)
Relative humidity99 %
Density altitude-1,791 ft. (-546 m)
Remarks Fully automated report
Automated weather observing station with precipitation discriminator
Sea level pressure sensor not operating.
Ceiling
Flight conditions Marginal Visual Meteorological Conditions
Raw dataKRND 040455Z AUTO 00000KT 10SM BKN012 04/04 A3047 RMK AO2 CIG 011 RWY33R SLPNO T00440043
An unhandled exception has occurred. See browser dev tools for details. Reload 🗙